sensor_id;sensor_type;location;lat;lon;timestamp;temperature;humidity
22680;DHT22;11507;44.858;10.374;2023-07-20T00:01:26;23.80;99.90
22680;DHT22;11507;44.858;10.374;2023-07-20T00:03:52;23.70;99.90
22680;DHT22;11507;44.858;10.374;2023-07-20T00:06:21;23.70;99.90
22680;DHT22;11507;44.858;10.374;2023-07-20T00:08:47;23.70;99.90
22680;DHT22;11507;44.858;10.374;2023-07-20T00:11:13;23.60;99.90
22680;DHT22;11507;44.858;10.374;2023-07-20T00:13:40;23.60;99.90
22680;DHT22;11507;44.858;10.374;2023-07-20T00:16:05;23.60;99.90
22680;DHT22;11507;44.858;10.374;2023-07-20T00:18:31;23.60;99.90
22680;DHT22;11507;44.858;10.374;2023-07-20T00:20:57;23.60;99.90
22680;DHT22;11507;44.858;10.374;2023-07-20T00:23:25;23.60;99.90
22680;DHT22;11507;44.858;10.374;2023-07-20T00:25:51;23.60;99.90
22680;DHT22;11507;44.858;10.374;2023-07-20T00:28:17;23.60;99.90
22680;DHT22;11507;44.858;10.374;2023-07-20T00:30:43;23.60;99.90
22680;DHT22;11507;44.858;10.374;2023-07-20T00:33:13;23.60;99.90
22680;DHT22;11507;44.858;10.374;2023-07-20T00:35:39;23.60;99.90
22680;DHT22;11507;44.858;10.374;2023-07-20T00:38:08;23.60;99.90
22680;DHT22;11507;44.858;10.374;2023-07-20T00:40:40;23.60;99.90
22680;DHT22;11507;44.858;10.374;2023-07-20T00:43:07;23.60;99.90
22680;DHT22;11507;44.858;10.374;2023-07-20T00:45:33;23.60;99.90
22680;DHT22;11507;44.858;10.374;2023-07-20T00:48:01;23.60;99.90
22680;DHT22;11507;44.858;10.374;2023-07-20T00:50:28;23.60;99.90
22680;DHT22;11507;44.858;10.374;2023-07-20T00:52:55;23.70;99.90
22680;DHT22;11507;44.858;10.374;2023-07-20T00:55:23;23.70;99.90
22680;DHT22;11507;44.858;10.374;2023-07-20T00:57:49;23.70;99.90
22680;DHT22;11507;44.858;10.374;2023-07-20T01:00:16;23.80;99.90
22680;DHT22;11507;44.858;10.374;2023-07-20T01:02:43;23.90;99.90
22680;DHT22;11507;44.858;10.374;2023-07-20T01:05:09;23.90;99.90
22680;DHT22;11507;44.858;10.374;2023-07-20T01:08:08;24.00;99.90
22680;DHT22;11507;44.858;10.374;2023-07-20T01:10:40;24.00;99.90
22680;DHT22;11507;44.858;10.374;2023-07-20T01:13:10;24.10;99.90
22680;DHT22;11507;44.858;10.374;2023-07-20T01:15:38;24.10;99.90
22680;DHT22;11507;44.858;10.374;2023-07-20T01:18:03;24.00;99.90
22680;DHT22;11507;44.858;10.374;2023-07-20T01:20:32;24.00;99.90
22680;DHT22;11507;44.858;10.374;2023-07-20T01:23:28;23.90;99.90
22680;DHT22;11507;44.858;10.374;2023-07-20T01:26:12;23.80;99.90
22680;DHT22;11507;44.858;10.374;2023-07-20T01:31:34;23.60;99.90
22680;DHT22;11507;44.858;10.374;2023-07-20T01:34:02;23.50;99.90
22680;DHT22;11507;44.858;10.374;2023-07-20T01:36:32;23.40;99.90
22680;DHT22;11507;44.858;10.374;2023-07-20T01:38:59;23.20;99.90
22680;DHT22;11507;44.858;10.374;2023-07-20T01:41:26;23.20;99.90
22680;DHT22;11507;44.858;10.374;2023-07-20T01:43:51;23.10;99.90
22680;DHT22;11507;44.858;10.374;2023-07-20T01:46:17;23.00;99.90
22680;DHT22;11507;44.858;10.374;2023-07-20T01:48:43;22.90;99.90
22680;DHT22;11507;44.858;10.374;2023-07-20T01:51:09;22.90;99.90
22680;DHT22;11507;44.858;10.374;2023-07-20T01:53:35;22.80;99.90
22680;DHT22;11507;44.858;10.374;2023-07-20T01:56:00;22.70;99.90
22680;DHT22;11507;44.858;10.374;2023-07-20T01:58:26;22.70;99.90
22680;DHT22;11507;44.858;10.374;2023-07-20T02:00:52;22.70;99.90
22680;DHT22;11507;44.858;10.374;2023-07-20T02:03:19;22.60;99.90
22680;DHT22;11507;44.858;10.374;2023-07-20T02:05:47;22.60;99.90
22680;DHT22;11507;44.858;10.374;2023-07-20T02:08:13;22.50;99.90
22680;DHT22;11507;44.858;10.374;2023-07-20T02:10:39;22.60;99.90
22680;DHT22;11507;44.858;10.374;2023-07-20T02:13:04;22.60;99.90
22680;DHT22;11507;44.858;10.374;2023-07-20T02:15:30;22.60;99.90
22680;DHT22;11507;44.858;10.374;2023-07-20T02:17:56;22.60;99.90
22680;DHT22;11507;44.858;10.374;2023-07-20T02:20:22;22.60;99.90
22680;DHT22;11507;44.858;10.374;2023-07-20T02:22:47;22.60;99.90
22680;DHT22;11507;44.858;10.374;2023-07-20T02:25:13;22.70;99.90
22680;DHT22;11507;44.858;10.374;2023-07-20T02:27:39;22.70;99.90
22680;DHT22;11507;44.858;10.374;2023-07-20T02:30:06;22.70;99.90
22680;DHT22;11507;44.858;10.374;2023-07-20T02:32:32;22.60;99.90
22680;DHT22;11507;44.858;10.374;2023-07-20T02:34:57;22.60;99.90
22680;DHT22;11507;44.858;10.374;2023-07-20T02:37:24;22.60;99.90
22680;DHT22;11507;44.858;10.374;2023-07-20T02:39:50;22.50;99.90
22680;DHT22;11507;44.858;10.374;2023-07-20T02:42:18;22.50;99.90
22680;DHT22;11507;44.858;10.374;2023-07-20T02:44:45;22.40;99.90
22680;DHT22;11507;44.858;10.374;2023-07-20T02:47:11;22.30;99.90
22680;DHT22;11507;44.858;10.374;2023-07-20T02:49:37;22.40;99.90
22680;DHT22;11507;44.858;10.374;2023-07-20T02:52:03;22.30;99.90
22680;DHT22;11507;44.858;10.374;2023-07-20T02:54:29;22.10;99.90
22680;DHT22;11507;44.858;10.374;2023-07-20T02:56:56;22.00;99.90
22680;DHT22;11507;44.858;10.374;2023-07-20T02:59:22;22.00;99.90
22680;DHT22;11507;44.858;10.374;2023-07-20T03:01:48;21.90;99.90
22680;DHT22;11507;44.858;10.374;2023-07-20T03:04:14;21.90;99.90
22680;DHT22;11507;44.858;10.374;2023-07-20T03:06:40;21.90;99.90
22680;DHT22;11507;44.858;10.374;2023-07-20T03:09:06;21.90;99.90
22680;DHT22;11507;44.858;10.374;2023-07-20T03:11:32;21.90;99.90
22680;DHT22;11507;44.858;10.374;2023-07-20T03:13:59;21.90;99.90
22680;DHT22;11507;44.858;10.374;2023-07-20T03:16:25;21.90;99.90
22680;DHT22;11507;44.858;10.374;2023-07-20T03:18:52;21.90;99.90
22680;DHT22;11507;44.858;10.374;2023-07-20T03:21:19;21.90;99.90
22680;DHT22;11507;44.858;10.374;2023-07-20T03:23:44;21.80;99.90
22680;DHT22;11507;44.858;10.374;2023-07-20T03:26:11;21.80;99.90
22680;DHT22;11507;44.858;10.374;2023-07-20T03:28:38;21.80;99.90
22680;DHT22;11507;44.858;10.374;2023-07-20T03:31:04;21.80;99.90
22680;DHT22;11507;44.858;10.374;2023-07-20T03:33:33;21.80;99.90
22680;DHT22;11507;44.858;10.374;2023-07-20T03:36:00;21.80;99.90
22680;DHT22;11507;44.858;10.374;2023-07-20T03:38:26;21.80;99.90
22680;DHT22;11507;44.858;10.374;2023-07-20T03:40:55;21.80;99.90
22680;DHT22;11507;44.858;10.374;2023-07-20T03:43:22;21.80;99.90
22680;DHT22;11507;44.858;10.374;2023-07-20T03:45:48;21.80;99.90
22680;DHT22;11507;44.858;10.374;2023-07-20T03:48:21;21.80;99.90
22680;DHT22;11507;44.858;10.374;2023-07-20T03:50:49;21.80;99.90
22680;DHT22;11507;44.858;10.374;2023-07-20T03:53:15;21.80;99.90
22680;DHT22;11507;44.858;10.374;2023-07-20T03:55:46;21.70;99.90
22680;DHT22;11507;44.858;10.374;2023-07-20T03:58:13;21.70;99.90
22680;DHT22;11507;44.858;10.374;2023-07-20T04:00:39;21.70;99.90
22680;DHT22;11507;44.858;10.374;2023-07-20T04:03:06;21.70;99.90
22680;DHT22;11507;44.858;10.374;2023-07-20T04:05:32;21.70;99.90
22680;DHT22;11507;44.858;10.374;2023-07-20T04:07:58;21.70;99.90
22680;DHT22;11507;44.858;10.374;2023-07-20T04:10:24;21.70;99.90
22680;DHT22;11507;44.858;10.374;2023-07-20T04:12:51;21.60;99.90
22680;DHT22;11507;44.858;10.374;2023-07-20T04:15:17;21.60;99.90
22680;DHT22;11507;44.858;10.374;2023-07-20T04:17:45;21.60;99.90
22680;DHT22;11507;44.858;10.374;2023-07-20T04:20:12;21.60;99.90
22680;DHT22;11507;44.858;10.374;2023-07-20T04:22:38;21.60;99.90
22680;DHT22;11507;44.858;10.374;2023-07-20T04:25:07;21.60;99.90
22680;DHT22;11507;44.858;10.374;2023-07-20T04:27:33;21.70;99.90
22680;DHT22;11507;44.858;10.374;2023-07-20T04:29:59;21.70;99.90
22680;DHT22;11507;44.858;10.374;2023-07-20T04:32:25;21.70;99.90
22680;DHT22;11507;44.858;10.374;2023-07-20T04:34:52;21.70;99.90
22680;DHT22;11507;44.858;10.374;2023-07-20T04:37:18;21.70;99.90
22680;DHT22;11507;44.858;10.374;2023-07-20T04:39:46;21.80;99.90
22680;DHT22;11507;44.858;10.374;2023-07-20T04:42:14;21.80;99.90
22680;DHT22;11507;44.858;10.374;2023-07-20T04:44:40;21.90;99.90
22680;DHT22;11507;44.858;10.374;2023-07-20T04:47:08;21.90;99.90
22680;DHT22;11507;44.858;10.374;2023-07-20T04:49:37;21.90;99.90
22680;DHT22;11507;44.858;10.374;2023-07-20T04:52:03;22.00;99.90
22680;DHT22;11507;44.858;10.374;2023-07-20T04:54:30;22.00;99.90
22680;DHT22;11507;44.858;10.374;2023-07-20T04:56:56;22.10;99.90
22680;DHT22;11507;44.858;10.374;2023-07-20T04:59:22;22.20;99.90
22680;DHT22;11507;44.858;10.374;2023-07-20T05:01:48;22.20;99.90
22680;DHT22;11507;44.858;10.374;2023-07-20T05:04:15;22.30;99.90
22680;DHT22;11507;44.858;10.374;2023-07-20T05:06:41;22.40;99.90
22680;DHT22;11507;44.858;10.374;2023-07-20T05:09:08;22.40;99.90
22680;DHT22;11507;44.858;10.374;2023-07-20T05:11:34;22.60;99.90
22680;DHT22;11507;44.858;10.374;2023-07-20T05:14:00;22.60;99.90
22680;DHT22;11507;44.858;10.374;2023-07-20T05:16:27;22.80;99.90
22680;DHT22;11507;44.858;10.374;2023-07-20T05:18:56;22.80;99.90
22680;DHT22;11507;44.858;10.374;2023-07-20T05:21:23;23.00;99.90
22680;DHT22;11507;44.858;10.374;2023-07-20T05:23:49;23.10;99.90
22680;DHT22;11507;44.858;10.374;2023-07-20T05:26:15;23.20;99.90
22680;DHT22;11507;44.858;10.374;2023-07-20T05:28:41;23.20;99.90
22680;DHT22;11507;44.858;10.374;2023-07-20T05:31:06;23.40;99.90
22680;DHT22;11507;44.858;10.374;2023-07-20T05:33:32;23.50;99.90
22680;DHT22;11507;44.858;10.374;2023-07-20T05:35:58;23.60;99.90
22680;DHT22;11507;44.858;10.374;2023-07-20T05:38:25;23.70;99.90
22680;DHT22;11507;44.858;10.374;2023-07-20T05:40:50;23.80;99.90
22680;DHT22;11507;44.858;10.374;2023-07-20T05:43:16;23.90;99.90
22680;DHT22;11507;44.858;10.374;2023-07-20T05:45:43;23.90;99.90
22680;DHT22;11507;44.858;10.374;2023-07-20T05:48:09;24.10;99.90
22680;DHT22;11507;44.858;10.374;2023-07-20T05:50:42;24.20;99.90
22680;DHT22;11507;44.858;10.374;2023-07-20T05:53:09;24.40;99.90
22680;DHT22;11507;44.858;10.374;2023-07-20T05:55:34;24.40;99.90
22680;DHT22;11507;44.858;10.374;2023-07-20T05:58:01;24.60;99.90
22680;DHT22;11507;44.858;10.374;2023-07-20T06:00:27;24.70;99.90
22680;DHT22;11507;44.858;10.374;2023-07-20T06:02:53;24.80;99.90
22680;DHT22;11507;44.858;10.374;2023-07-20T06:05:21;25.00;99.90
22680;DHT22;11507;44.858;10.374;2023-07-20T06:07:47;25.20;99.90
22680;DHT22;11507;44.858;10.374;2023-07-20T06:10:13;25.30;99.90
22680;DHT22;11507;44.858;10.374;2023-07-20T06:12:38;25.50;99.90
22680;DHT22;11507;44.858;10.374;2023-07-20T06:15:05;25.70;99.90
22680;DHT22;11507;44.858;10.374;2023-07-20T06:17:32;25.90;99.90
22680;DHT22;11507;44.858;10.374;2023-07-20T06:19:58;26.00;99.90
22680;DHT22;11507;44.858;10.374;2023-07-20T06:22:25;26.30;99.90
22680;DHT22;11507;44.858;10.374;2023-07-20T06:24:52;26.50;99.90
22680;DHT22;11507;44.858;10.374;2023-07-20T06:27:18;26.60;99.90
22680;DHT22;11507;44.858;10.374;2023-07-20T06:29:43;26.80;99.90
22680;DHT22;11507;44.858;10.374;2023-07-20T06:32:09;26.90;99.90
22680;DHT22;11507;44.858;10.374;2023-07-20T06:34:35;27.10;99.90
22680;DHT22;11507;44.858;10.374;2023-07-20T06:37:04;27.20;99.90
22680;DHT22;11507;44.858;10.374;2023-07-20T06:39:30;27.40;99.90
22680;DHT22;11507;44.858;10.374;2023-07-20T06:41:56;27.50;99.90
22680;DHT22;11507;44.858;10.374;2023-07-20T06:44:22;27.70;99.90
22680;DHT22;11507;44.858;10.374;2023-07-20T06:46:48;27.90;99.90
22680;DHT22;11507;44.858;10.374;2023-07-20T06:49:27;28.00;99.90
22680;DHT22;11507;44.858;10.374;2023-07-20T06:51:53;28.10;99.90
22680;DHT22;11507;44.858;10.374;2023-07-20T06:54:19;28.30;99.90
22680;DHT22;11507;44.858;10.374;2023-07-20T06:56:45;28.40;99.90
22680;DHT22;11507;44.858;10.374;2023-07-20T06:59:11;28.50;99.90
22680;DHT22;11507;44.858;10.374;2023-07-20T07:01:37;28.60;99.90
22680;DHT22;11507;44.858;10.374;2023-07-20T07:04:03;28.60;99.90
22680;DHT22;11507;44.858;10.374;2023-07-20T07:06:31;28.70;99.90
22680;DHT22;11507;44.858;10.374;2023-07-20T07:08:57;28.90;99.90
22680;DHT22;11507;44.858;10.374;2023-07-20T07:11:23;29.10;99.90
22680;DHT22;11507;44.858;10.374;2023-07-20T07:13:49;29.20;99.90
22680;DHT22;11507;44.858;10.374;2023-07-20T07:16:17;29.20;99.90
22680;DHT22;11507;44.858;10.374;2023-07-20T07:18:49;29.30;99.90
22680;DHT22;11507;44.858;10.374;2023-07-20T07:21:15;29.50;99.90
22680;DHT22;11507;44.858;10.374;2023-07-20T07:23:41;29.50;99.90
22680;DHT22;11507;44.858;10.374;2023-07-20T07:26:07;29.70;99.90
22680;DHT22;11507;44.858;10.374;2023-07-20T07:28:34;29.70;99.50
22680;DHT22;11507;44.858;10.374;2023-07-20T07:30:59;29.50;99.40
22680;DHT22;11507;44.858;10.374;2023-07-20T07:33:26;29.50;99.50
22680;DHT22;11507;44.858;10.374;2023-07-20T07:35:52;29.40;99.90
22680;DHT22;11507;44.858;10.374;2023-07-20T07:38:18;29.30;99.90
22680;DHT22;11507;44.858;10.374;2023-07-20T07:40:45;29.30;99.90
22680;DHT22;11507;44.858;10.374;2023-07-20T07:43:10;29.40;99.90
22680;DHT22;11507;44.858;10.374;2023-07-20T07:45:37;29.60;99.90
22680;DHT22;11507;44.858;10.374;2023-07-20T07:48:04;29.70;99.60
22680;DHT22;11507;44.858;10.374;2023-07-20T07:50:30;29.90;99.60
22680;DHT22;11507;44.858;10.374;2023-07-20T07:52:55;30.10;99.90
22680;DHT22;11507;44.858;10.374;2023-07-20T07:55:21;30.30;99.30
22680;DHT22;11507;44.858;10.374;2023-07-20T07:57:47;30.40;99.00
22680;DHT22;11507;44.858;10.374;2023-07-20T08:00:14;30.50;98.80
22680;DHT22;11507;44.858;10.374;2023-07-20T08:02:44;30.40;98.40
22680;DHT22;11507;44.858;10.374;2023-07-20T08:05:10;30.50;98.70
22680;DHT22;11507;44.858;10.374;2023-07-20T08:07:36;30.80;99.90
22680;DHT22;11507;44.858;10.374;2023-07-20T08:10:03;31.00;97.90
22680;DHT22;11507;44.858;10.374;2023-07-20T08:12:29;31.00;98.10
22680;DHT22;11507;44.858;10.374;2023-07-20T08:14:55;31.10;96.80
22680;DHT22;11507;44.858;10.374;2023-07-20T08:17:21;31.20;95.50
22680;DHT22;11507;44.858;10.374;2023-07-20T08:19:47;30.80;97.00
22680;DHT22;11507;44.858;10.374;2023-07-20T08:22:12;30.70;97.00
22680;DHT22;11507;44.858;10.374;2023-07-20T08:24:42;30.80;96.80
22680;DHT22;11507;44.858;10.374;2023-07-20T08:27:08;31.00;98.40
22680;DHT22;11507;44.858;10.374;2023-07-20T08:29:35;31.20;98.50
22680;DHT22;11507;44.858;10.374;2023-07-20T08:32:01;31.60;98.20
22680;DHT22;11507;44.858;10.374;2023-07-20T08:34:27;31.90;97.70
22680;DHT22;11507;44.858;10.374;2023-07-20T08:36:53;32.20;96.70
22680;DHT22;11507;44.858;10.374;2023-07-20T08:39:19;32.40;95.70
22680;DHT22;11507;44.858;10.374;2023-07-20T08:41:48;32.70;96.30
22680;DHT22;11507;44.858;10.374;2023-07-20T08:44:14;32.90;95.00
22680;DHT22;11507;44.858;10.374;2023-07-20T08:46:41;33.10;94.30
22680;DHT22;11507;44.858;10.374;2023-07-20T08:49:08;33.20;94.10
22680;DHT22;11507;44.858;10.374;2023-07-20T08:51:35;33.30;93.90
22680;DHT22;11507;44.858;10.374;2023-07-20T08:54:02;33.30;92.90
22680;DHT22;11507;44.858;10.374;2023-07-20T08:56:29;33.40;93.50
22680;DHT22;11507;44.858;10.374;2023-07-20T08:58:59;33.50;93.00
22680;DHT22;11507;44.858;10.374;2023-07-20T09:01:27;33.70;92.50
22680;DHT22;11507;44.858;10.374;2023-07-20T09:03:53;33.80;90.90
22680;DHT22;11507;44.858;10.374;2023-07-20T09:06:19;33.80;90.70
22680;DHT22;11507;44.858;10.374;2023-07-20T09:08:46;33.90;90.50
22680;DHT22;11507;44.858;10.374;2023-07-20T09:11:12;34.10;91.20
22680;DHT22;11507;44.858;10.374;2023-07-20T09:13:39;34.00;87.40
22680;DHT22;11507;44.858;10.374;2023-07-20T09:16:05;34.00;86.80
22680;DHT22;11507;44.858;10.374;2023-07-20T09:18:32;34.10;87.60
22680;DHT22;11507;44.858;10.374;2023-07-20T09:20:59;34.10;89.60
22680;DHT22;11507;44.858;10.374;2023-07-20T09:23:33;33.90;91.30
22680;DHT22;11507;44.858;10.374;2023-07-20T09:26:11;34.10;91.90
22680;DHT22;11507;44.858;10.374;2023-07-20T09:28:48;34.30;91.30
22680;DHT22;11507;44.858;10.374;2023-07-20T09:31:19;34.70;88.90
22680;DHT22;11507;44.858;10.374;2023-07-20T09:33:46;34.70;88.90
22680;DHT22;11507;44.858;10.374;2023-07-20T09:36:13;34.80;88.10
22680;DHT22;11507;44.858;10.374;2023-07-20T09:38:43;35.00;85.80
22680;DHT22;11507;44.858;10.374;2023-07-20T09:41:14;35.40;87.00
22680;DHT22;11507;44.858;10.374;2023-07-20T09:43:45;35.70;84.30
22680;DHT22;11507;44.858;10.374;2023-07-20T09:46:11;35.80;81.00
22680;DHT22;11507;44.858;10.374;2023-07-20T09:48:37;35.90;83.50
22680;DHT22;11507;44.858;10.374;2023-07-20T09:51:03;35.80;76.90
22680;DHT22;11507;44.858;10.374;2023-07-20T09:53:32;35.80;80.50
22680;DHT22;11507;44.858;10.374;2023-07-20T09:55:59;36.00;82.60
22680;DHT22;11507;44.858;10.374;2023-07-20T09:58:29;36.30;81.10
22680;DHT22;11507;44.858;10.374;2023-07-20T10:00:57;36.10;79.70
22680;DHT22;11507;44.858;10.374;2023-07-20T10:03:29;36.30;81.70
22680;DHT22;11507;44.858;10.374;2023-07-20T10:06:02;36.60;81.50
22680;DHT22;11507;44.858;10.374;2023-07-20T10:08:32;36.80;79.70
22680;DHT22;11507;44.858;10.374;2023-07-20T10:11:02;36.90;78.50
22680;DHT22;11507;44.858;10.374;2023-07-20T10:13:29;37.00;76.10
22680;DHT22;11507;44.858;10.374;2023-07-20T10:16:03;36.70;76.40
22680;DHT22;11507;44.858;10.374;2023-07-20T10:18:51;36.60;76.90
22680;DHT22;11507;44.858;10.374;2023-07-20T10:21:21;36.90;80.00
22680;DHT22;11507;44.858;10.374;2023-07-20T10:23:48;37.10;79.60
22680;DHT22;11507;44.858;10.374;2023-07-20T10:26:15;37.40;78.80
22680;DHT22;11507;44.858;10.374;2023-07-20T10:28:41;37.70;77.40
22680;DHT22;11507;44.858;10.374;2023-07-20T10:31:08;37.90;78.00
22680;DHT22;11507;44.858;10.374;2023-07-20T10:33:36;38.10;76.40
22680;DHT22;11507;44.858;10.374;2023-07-20T10:36:04;38.20;75.20
22680;DHT22;11507;44.858;10.374;2023-07-20T10:41:20;38.80;77.30
22680;DHT22;11507;44.858;10.374;2023-07-20T10:43:46;38.90;73.80
22680;DHT22;11507;44.858;10.374;2023-07-20T10:46:13;39.10;68.80
22680;DHT22;11507;44.858;10.374;2023-07-20T10:49:02;39.10;70.40
22680;DHT22;11507;44.858;10.374;2023-07-20T10:51:28;39.40;71.70
22680;DHT22;11507;44.858;10.374;2023-07-20T10:53:58;39.50;69.10
22680;DHT22;11507;44.858;10.374;2023-07-20T10:56:28;39.30;67.80
22680;DHT22;11507;44.858;10.374;2023-07-20T10:59:00;39.20;67.10
22680;DHT22;11507;44.858;10.374;2023-07-20T11:01:30;39.20;68.30
22680;DHT22;11507;44.858;10.374;2023-07-20T11:04:00;39.10;68.60
22680;DHT22;11507;44.858;10.374;2023-07-20T11:09:02;38.70;65.50
22680;DHT22;11507;44.858;10.374;2023-07-20T11:11:34;38.50;69.30
22680;DHT22;11507;44.858;10.374;2023-07-20T11:14:03;38.60;68.00
22680;DHT22;11507;44.858;10.374;2023-07-20T11:16:45;39.00;70.00
22680;DHT22;11507;44.858;10.374;2023-07-20T11:21:46;39.70;71.10
22680;DHT22;11507;44.858;10.374;2023-07-20T11:24:13;39.90;68.30
22680;DHT22;11507;44.858;10.374;2023-07-20T11:26:50;40.00;62.70
22680;DHT22;11507;44.858;10.374;2023-07-20T11:29:18;40.00;62.90
22680;DHT22;11507;44.858;10.374;2023-07-20T11:31:45;40.00;65.20
22680;DHT22;11507;44.858;10.374;2023-07-20T11:34:19;40.40;63.00
22680;DHT22;11507;44.858;10.374;2023-07-20T11:36:48;40.70;62.70
22680;DHT22;11507;44.858;10.374;2023-07-20T11:39:19;40.30;62.00
22680;DHT22;11507;44.858;10.374;2023-07-20T11:41:53;40.60;59.90
22680;DHT22;11507;44.858;10.374;2023-07-20T11:44:21;40.80;59.00
22680;DHT22;11507;44.858;10.374;2023-07-20T11:47:07;40.90;60.40
22680;DHT22;11507;44.858;10.374;2023-07-20T11:49:38;41.30;61.60
22680;DHT22;11507;44.858;10.374;2023-07-20T11:52:10;41.40;59.60
22680;DHT22;11507;44.858;10.374;2023-07-20T11:54:38;41.60;59.10
22680;DHT22;11507;44.858;10.374;2023-07-20T11:57:05;41.90;59.50
22680;DHT22;11507;44.858;10.374;2023-07-20T11:59:31;42.30;59.60
22680;DHT22;11507;44.858;10.374;2023-07-20T12:02:00;42.50;58.30
22680;DHT22;11507;44.858;10.374;2023-07-20T12:04:26;42.70;58.40
22680;DHT22;11507;44.858;10.374;2023-07-20T12:06:53;42.70;56.00
22680;DHT22;11507;44.858;10.374;2023-07-20T12:09:21;42.70;55.60
22680;DHT22;11507;44.858;10.374;2023-07-20T12:11:49;42.90;56.30
22680;DHT22;11507;44.858;10.374;2023-07-20T12:14:15;43.00;56.30
22680;DHT22;11507;44.858;10.374;2023-07-20T12:16:41;43.40;55.70
22680;DHT22;11507;44.858;10.374;2023-07-20T12:19:11;43.60;54.40
22680;DHT22;11507;44.858;10.374;2023-07-20T12:21:40;43.60;52.90
22680;DHT22;11507;44.858;10.374;2023-07-20T12:24:08;43.20;53.30
22680;DHT22;11507;44.858;10.374;2023-07-20T12:26:35;43.30;55.00
22680;DHT22;11507;44.858;10.374;2023-07-20T12:29:01;43.30;54.30
22680;DHT22;11507;44.858;10.374;2023-07-20T12:31:30;43.10;52.20
22680;DHT22;11507;44.858;10.374;2023-07-20T12:33:57;42.90;54.50
22680;DHT22;11507;44.858;10.374;2023-07-20T12:36:24;42.20;56.20
22680;DHT22;11507;44.858;10.374;2023-07-20T12:38:50;42.30;54.70
22680;DHT22;11507;44.858;10.374;2023-07-20T12:41:16;42.50;54.70
22680;DHT22;11507;44.858;10.374;2023-07-20T12:43:44;42.80;54.60
22680;DHT22;11507;44.858;10.374;2023-07-20T12:46:11;43.10;53.90
22680;DHT22;11507;44.858;10.374;2023-07-20T12:48:37;43.40;52.40
22680;DHT22;11507;44.858;10.374;2023-07-20T12:51:05;43.50;53.70
22680;DHT22;11507;44.858;10.374;2023-07-20T12:53:32;43.50;52.80
22680;DHT22;11507;44.858;10.374;2023-07-20T12:55:58;43.10;52.50
22680;DHT22;11507;44.858;10.374;2023-07-20T12:58:24;43.30;52.80
22680;DHT22;11507;44.858;10.374;2023-07-20T13:00:53;43.30;52.40
22680;DHT22;11507;44.858;10.374;2023-07-20T13:03:19;43.10;52.50
22680;DHT22;11507;44.858;10.374;2023-07-20T13:05:46;42.90;52.40
22680;DHT22;11507;44.858;10.374;2023-07-20T13:08:12;42.90;52.60
22680;DHT22;11507;44.858;10.374;2023-07-20T13:10:38;42.90;51.80
22680;DHT22;11507;44.858;10.374;2023-07-20T13:13:05;43.10;51.70
22680;DHT22;11507;44.858;10.374;2023-07-20T13:15:32;43.40;51.20
22680;DHT22;11507;44.858;10.374;2023-07-20T13:17:59;43.60;53.40
22680;DHT22;11507;44.858;10.374;2023-07-20T13:20:25;43.70;51.80
22680;DHT22;11507;44.858;10.374;2023-07-20T13:22:51;43.40;48.70
22680;DHT22;11507;44.858;10.374;2023-07-20T13:25:17;43.30;50.80
22680;DHT22;11507;44.858;10.374;2023-07-20T13:27:44;43.40;50.70
22680;DHT22;11507;44.858;10.374;2023-07-20T13:30:10;43.70;49.20
22680;DHT22;11507;44.858;10.374;2023-07-20T13:32:45;43.90;50.00
22680;DHT22;11507;44.858;10.374;2023-07-20T13:35:11;44.20;51.30
22680;DHT22;11507;44.858;10.374;2023-07-20T13:37:38;44.40;49.80
22680;DHT22;11507;44.858;10.374;2023-07-20T13:40:04;44.40;47.40
22680;DHT22;11507;44.858;10.374;2023-07-20T13:42:34;44.60;49.50
22680;DHT22;11507;44.858;10.374;2023-07-20T13:45:00;44.60;49.40
22680;DHT22;11507;44.858;10.374;2023-07-20T13:47:26;44.70;47.20
22680;DHT22;11507;44.858;10.374;2023-07-20T13:49:52;44.70;49.10
22680;DHT22;11507;44.858;10.374;2023-07-20T13:52:18;44.60;48.20
22680;DHT22;11507;44.858;10.374;2023-07-20T13:54:43;44.10;46.80
22680;DHT22;11507;44.858;10.374;2023-07-20T13:57:09;44.10;49.00
22680;DHT22;11507;44.858;10.374;2023-07-20T13:59:35;44.20;48.30
22680;DHT22;11507;44.858;10.374;2023-07-20T14:02:01;44.40;50.30
22680;DHT22;11507;44.858;10.374;2023-07-20T14:04:26;44.60;48.70
22680;DHT22;11507;44.858;10.374;2023-07-20T14:06:52;44.80;49.70
22680;DHT22;11507;44.858;10.374;2023-07-20T14:09:18;44.60;48.60
22680;DHT22;11507;44.858;10.374;2023-07-20T14:11:44;44.80;48.70
22680;DHT22;11507;44.858;10.374;2023-07-20T14:14:10;44.60;48.40
22680;DHT22;11507;44.858;10.374;2023-07-20T14:16:35;44.60;48.70
22680;DHT22;11507;44.858;10.374;2023-07-20T14:19:01;44.50;48.60
22680;DHT22;11507;44.858;10.374;2023-07-20T14:21:27;44.50;49.80
22680;DHT22;11507;44.858;10.374;2023-07-20T14:23:55;44.50;50.00
22680;DHT22;11507;44.858;10.374;2023-07-20T14:26:21;44.40;49.50
22680;DHT22;11507;44.858;10.374;2023-07-20T14:28:47;44.10;47.80
22680;DHT22;11507;44.858;10.374;2023-07-20T14:31:13;44.00;48.20
22680;DHT22;11507;44.858;10.374;2023-07-20T14:33:39;43.80;49.00
22680;DHT22;11507;44.858;10.374;2023-07-20T14:36:05;44.00;49.80
22680;DHT22;11507;44.858;10.374;2023-07-20T14:38:33;44.20;48.80
22680;DHT22;11507;44.858;10.374;2023-07-20T14:40:59;44.20;48.40
22680;DHT22;11507;44.858;10.374;2023-07-20T14:43:25;44.20;48.60
22680;DHT22;11507;44.858;10.374;2023-07-20T14:45:51;44.20;48.80
22680;DHT22;11507;44.858;10.374;2023-07-20T14:48:17;44.10;49.70
22680;DHT22;11507;44.858;10.374;2023-07-20T14:50:42;44.20;49.90
22680;DHT22;11507;44.858;10.374;2023-07-20T14:53:12;44.50;49.70
22680;DHT22;11507;44.858;10.374;2023-07-20T14:55:38;44.50;49.40
22680;DHT22;11507;44.858;10.374;2023-07-20T14:58:04;44.40;47.50
22680;DHT22;11507;44.858;10.374;2023-07-20T15:00:30;44.30;48.10
22680;DHT22;11507;44.858;10.374;2023-07-20T15:02:56;44.10;48.20
22680;DHT22;11507;44.858;10.374;2023-07-20T15:05:23;44.20;48.30
22680;DHT22;11507;44.858;10.374;2023-07-20T15:07:49;44.10;49.50
22680;DHT22;11507;44.858;10.374;2023-07-20T15:10:16;44.20;48.40
22680;DHT22;11507;44.858;10.374;2023-07-20T15:12:42;43.70;47.80
22680;DHT22;11507;44.858;10.374;2023-07-20T15:15:12;43.70;48.40
22680;DHT22;11507;44.858;10.374;2023-07-20T15:17:42;43.70;48.70
22680;DHT22;11507;44.858;10.374;2023-07-20T15:20:12;43.70;49.10
22680;DHT22;11507;44.858;10.374;2023-07-20T15:22:39;43.50;48.60
22680;DHT22;11507;44.858;10.374;2023-07-20T15:25:06;43.40;48.60
22680;DHT22;11507;44.858;10.374;2023-07-20T15:27:32;43.30;49.10